createdAt,value
2018-09-05T00:00:34.428Z,0
2018-09-05T00:01:36.810Z,0
2018-09-05T00:02:38.916Z,0
2018-09-05T00:03:41.396Z,0
2018-09-05T00:04:43.490Z,0
2018-09-05T00:05:45.610Z,0
2018-09-05T00:06:47.699Z,0
2018-09-05T00:07:50.380Z,0
2018-09-05T00:08:52.481Z,0
2018-09-05T00:09:54.886Z,0
2018-09-05T00:10:56.977Z,0
2018-09-05T00:11:59.080Z,0
2018-09-05T00:13:01.195Z,0
2018-09-05T00:14:03.574Z,0
2018-09-05T00:15:05.687Z,0
2018-09-05T00:16:08.096Z,0
2018-09-05T00:17:10.529Z,0
2018-09-05T00:18:12.932Z,0
2018-09-05T00:19:15.037Z,0
2018-09-05T00:20:17.135Z,0
2018-09-05T00:21:19.246Z,0
2018-09-05T00:22:21.345Z,0
2018-09-05T00:23:23.830Z,0
2018-09-05T00:24:25.938Z,0
2018-09-05T00:25:28.049Z,0
2018-09-05T00:26:30.137Z,0
2018-09-05T00:27:32.845Z,0
2018-09-05T00:28:35.335Z,0
2018-09-05T00:29:37.428Z,0
2018-09-05T00:30:39.854Z,0
2018-09-05T00:31:41.950Z,0
2018-09-05T00:32:44.049Z,0
2018-09-05T00:33:46.138Z,0
2018-09-05T00:34:48.252Z,0
2018-09-05T00:35:50.341Z,0
2018-09-05T00:36:52.439Z,0
2018-09-05T00:37:54.944Z,0
2018-09-05T00:38:57.419Z,0
2018-09-05T00:39:59.533Z,0
2018-09-05T00:41:01.634Z,0
2018-09-05T00:42:04.036Z,0
2018-09-05T00:43:06.126Z,0
2018-09-05T00:44:08.237Z,0
2018-09-05T00:45:10.341Z,0
2018-09-05T00:46:12.433Z,0
2018-09-05T00:47:14.553Z,0
2018-09-05T00:48:16.932Z,0
2018-09-05T00:49:19.638Z,0
2018-09-05T00:50:21.744Z,0
2018-09-05T00:51:24.138Z,0
2018-09-05T00:52:26.518Z,0
2018-09-05T00:53:28.912Z,0
2018-09-05T00:54:31.008Z,0
2018-09-05T00:55:33.105Z,0
2018-09-05T00:56:35.216Z,0
2018-09-05T00:57:37.629Z,0
2018-09-05T00:58:39.720Z,0
2018-09-05T00:59:41.842Z,0
2018-09-05T01:00:44.230Z,0
2018-09-05T01:01:46.324Z,0
2018-09-05T01:02:48.750Z,0
2018-09-05T01:03:51.129Z,0
2018-09-05T01:04:53.234Z,0
2018-09-05T01:05:55.738Z,0
2018-09-05T01:06:57.849Z,0
2018-09-05T01:07:59.936Z,0
2018-09-05T01:09:02.051Z,0
2018-09-05T01:10:04.545Z,0
2018-09-05T01:11:06.636Z,0
2018-09-05T01:12:08.740Z,0
2018-09-05T01:13:11.241Z,0
2018-09-05T01:14:13.917Z,0
2018-09-05T01:15:16.021Z,0
2018-09-05T01:16:18.109Z,0
2018-09-05T01:17:20.220Z,0
2018-09-05T01:18:22.318Z,0
2018-09-05T01:19:24.420Z,0
2018-09-05T01:20:26.540Z,0
2018-09-05T01:21:28.634Z,0
2018-09-05T01:22:30.739Z,0
2018-09-05T01:23:33.144Z,0
2018-09-05T01:24:35.536Z,0
2018-09-05T01:25:38.231Z,0
2018-09-05T01:26:40.645Z,0
2018-09-05T01:27:42.742Z,0
2018-09-05T01:28:44.840Z,0
2018-09-05T01:29:46.951Z,0
2018-09-05T01:30:49.056Z,0
2018-09-05T01:31:51.151Z,0
2018-09-05T01:32:53.272Z,0
2018-09-05T01:33:55.761Z,0
2018-09-05T01:34:57.865Z,0
2018-09-05T01:35:59.977Z,0
2018-09-05T01:37:02.062Z,0
2018-09-05T01:38:04.166Z,0
2018-09-05T01:39:06.275Z,0
2018-09-05T01:40:08.389Z,0
2018-09-05T01:41:10.475Z,0
2018-09-05T01:42:12.593Z,0
2018-09-05T01:43:14.695Z,0
2018-09-05T01:44:16.787Z,0
2018-09-05T01:45:19.294Z,0
2018-09-05T01:46:21.394Z,0
2018-09-05T01:47:23.503Z,0
2018-09-05T01:48:25.599Z,0
2018-09-05T01:49:28.014Z,0
2018-09-05T01:50:30.120Z,0
2018-09-05T01:51:32.219Z,0
2018-09-05T01:52:34.707Z,0
2018-09-05T01:53:36.823Z,0
2018-09-05T01:54:39.204Z,0
2018-09-05T01:55:41.306Z,0
2018-09-05T01:56:43.416Z,0
2018-09-05T01:57:45.519Z,0
2018-09-05T01:58:47.616Z,0
2018-09-05T01:59:49.724Z,0
2018-09-05T02:00:51.815Z,0
2018-09-05T02:01:53.919Z,0
2018-09-05T02:02:56.032Z,0
2018-09-05T02:03:58.137Z,0
2018-09-05T02:05:00.527Z,0
2018-09-05T02:06:02.652Z,0
2018-09-05T02:07:05.037Z,0
2018-09-05T02:08:07.147Z,0
2018-09-05T02:09:09.257Z,0
2018-09-05T02:10:11.735Z,0
2018-09-05T02:11:13.838Z,0
2018-09-05T02:12:16.337Z,0
2018-09-05T02:13:18.446Z,0
2018-09-05T02:14:20.537Z,0
2018-09-05T02:15:22.647Z,0
2018-09-05T02:16:24.752Z,0
2018-09-05T02:17:26.848Z,0
2018-09-05T02:18:28.982Z,0
2018-09-05T02:19:31.064Z,0
2018-09-05T02:20:33.464Z,0
2018-09-05T02:21:35.563Z,0
2018-09-05T02:22:37.964Z,0
2018-09-05T02:23:40.065Z,0
2018-09-05T02:24:42.170Z,0
2018-09-05T02:25:44.277Z,0
2018-09-05T02:26:46.370Z,0
2018-09-05T02:27:48.478Z,0
2018-09-05T02:28:50.583Z,0
2018-09-05T02:29:52.700Z,0
2018-09-05T02:30:54.806Z,0
2018-09-05T02:31:56.901Z,0
2018-09-05T02:32:59.006Z,0
2018-09-05T02:34:01.100Z,0
2018-09-05T02:35:03.202Z,0
2018-09-05T02:36:05.311Z,0
2018-09-05T02:37:07.723Z,0
2018-09-05T02:38:09.818Z,0
2018-09-05T02:39:11.938Z,0
2018-09-05T02:40:14.110Z,0
2018-09-05T02:41:16.133Z,0
2018-09-05T02:42:18.249Z,0
2018-09-05T02:43:20.346Z,0
2018-09-05T02:44:22.453Z,0
2018-09-05T02:45:24.947Z,0
2018-09-05T02:46:27.060Z,0
2018-09-05T02:47:29.152Z,0
2018-09-05T02:48:31.262Z,0
2018-09-05T02:49:33.364Z,0
2018-09-05T02:50:35.462Z,0
2018-09-05T02:51:37.870Z,0
2018-09-05T02:52:40.359Z,0
2018-09-05T02:53:42.760Z,0
2018-09-05T02:54:45.144Z,0
2018-09-05T02:55:47.262Z,0
2018-09-05T02:56:49.357Z,0
2018-09-05T02:57:51.777Z,0
2018-09-05T02:58:53.901Z,0
2018-09-05T02:59:55.999Z,0
2018-09-05T03:00:58.699Z,0
2018-09-05T03:02:01.200Z,0
2018-09-05T03:03:03.293Z,0
2018-09-05T03:04:05.384Z,0
2018-09-05T03:05:07.797Z,0
2018-09-05T03:06:10.280Z,0
2018-09-05T03:07:12.394Z,0
2018-09-05T03:08:14.499Z,0
2018-09-05T03:09:16.602Z,0
2018-09-05T03:10:18.705Z,0
2018-09-05T03:11:20.812Z,0
2018-09-05T03:12:23.191Z,0
2018-09-05T03:13:25.298Z,0
2018-09-05T03:14:27.405Z,0
2018-09-05T03:15:29.496Z,0
2018-09-05T03:16:31.910Z,0
2018-09-05T03:17:34.016Z,0
2018-09-05T03:18:36.114Z,0
2018-09-05T03:19:38.211Z,0
2018-09-05T03:20:40.328Z,0
2018-09-05T03:21:42.427Z,0
2018-09-05T03:22:44.846Z,0
2018-09-05T03:23:46.967Z,0
2018-09-05T03:24:49.051Z,0
2018-09-05T03:25:51.480Z,0
2018-09-05T03:26:53.579Z,0
2018-09-05T03:27:55.691Z,0
2018-09-05T03:28:58.076Z,0
2018-09-05T03:30:00.190Z,0
2018-09-05T03:31:02.290Z,0
2018-09-05T03:32:04.688Z,0
2018-09-05T03:33:07.174Z,0
2018-09-05T03:34:09.665Z,0
2018-09-05T03:35:12.670Z,0
2018-09-05T03:36:14.789Z,0
2018-09-05T03:37:16.897Z,0
2018-09-05T03:38:18.995Z,0
2018-09-05T03:39:21.110Z,0
2018-09-05T03:40:23.197Z,0
2018-09-05T03:41:25.302Z,0
2018-09-05T03:42:27.412Z,0
2018-09-05T03:43:29.523Z,0
2018-09-05T03:44:31.634Z,0
2018-09-05T03:45:34.038Z,0
2018-09-05T03:46:36.851Z,0
2018-09-05T03:47:38.960Z,0
2018-09-05T03:48:41.106Z,0
2018-09-05T03:49:43.244Z,0
2018-09-05T03:50:45.320Z,0
2018-09-05T03:51:47.715Z,0
2018-09-05T03:52:49.812Z,0
2018-09-05T03:53:51.927Z,0
2018-09-05T03:54:54.020Z,0
2018-09-05T03:55:56.523Z,0
2018-09-05T03:56:58.921Z,0
2018-09-05T03:58:01.318Z,4
2018-09-05T03:59:03.722Z,4
2018-09-05T04:00:05.830Z,4
2018-09-05T04:01:07.935Z,0
2018-09-05T04:02:10.338Z,4
2018-09-05T04:03:12.449Z,4
2018-09-05T04:04:14.551Z,8
2018-09-05T04:05:16.660Z,4
2018-09-05T04:06:19.169Z,8
2018-09-05T04:07:21.260Z,8
2018-09-05T04:08:23.368Z,12
2018-09-05T04:09:25.767Z,12
2018-09-05T04:10:27.873Z,12
2018-09-05T04:11:30.255Z,16
2018-09-05T04:12:32.362Z,20
2018-09-05T04:13:34.461Z,24
2018-09-05T04:14:36.563Z,24
2018-09-05T04:15:38.684Z,32
2018-09-05T04:16:40.787Z,32
2018-09-05T04:17:42.880Z,36
2018-09-05T04:18:44.998Z,44
2018-09-05T04:19:47.388Z,52
2018-09-05T04:20:49.491Z,56
2018-09-05T04:21:51.926Z,64
2018-09-05T04:22:55.105Z,72
2018-09-05T04:23:57.202Z,76
2018-09-05T04:24:59.306Z,84
2018-09-05T04:26:01.400Z,104
2018-09-05T04:27:03.516Z,116
2018-09-05T04:28:05.904Z,124
2018-09-05T04:29:08.913Z,128
2018-09-05T04:30:11.026Z,148
2018-09-05T04:31:13.117Z,160
2018-09-05T04:32:16.136Z,168
2018-09-05T04:33:18.239Z,184
2018-09-05T04:34:20.746Z,208
2018-09-05T04:35:22.832Z,220
2018-09-05T04:36:24.943Z,252
2018-09-05T04:37:27.045Z,268
2018-09-05T04:38:29.746Z,284
2018-09-05T04:39:31.864Z,280
2018-09-05T04:40:33.960Z,304
2018-09-05T04:41:36.059Z,328
2018-09-05T04:42:38.171Z,364
2018-09-05T04:43:40.283Z,380
2018-09-05T04:44:42.383Z,408
2018-09-05T04:45:44.484Z,492
2018-09-05T04:46:46.573Z,468
2018-09-05T04:47:48.965Z,504
2018-09-05T04:48:51.080Z,540
2018-09-05T04:49:53.184Z,600
2018-09-05T04:50:55.272Z,624
2018-09-05T04:51:57.395Z,600
2018-09-05T04:52:59.493Z,692
2018-09-05T04:54:01.882Z,688
2018-09-05T04:55:04.393Z,696
2018-09-05T04:56:06.486Z,772
2018-09-05T04:57:08.592Z,812
2018-09-05T04:58:11.077Z,892
2018-09-05T04:59:13.193Z,884
2018-09-05T05:00:15.297Z,908
2018-09-05T05:01:17.402Z,964
2018-09-05T05:02:19.501Z,872
2018-09-05T05:03:21.905Z,956
2018-09-05T05:04:23.996Z,996
2018-09-05T05:05:26.121Z,1000
2018-09-05T05:06:28.226Z,1012
2018-09-05T05:07:30.339Z,1068
2018-09-05T05:08:32.724Z,1092
2018-09-05T05:09:34.833Z,1060
2018-09-05T05:10:36.936Z,1284
2018-09-05T05:11:39.040Z,1304
2018-09-05T05:12:41.473Z,1296
2018-09-05T05:13:43.870Z,1480
2018-09-05T05:14:45.974Z,1468
2018-09-05T05:15:48.084Z,1420
2018-09-05T05:16:50.194Z,1388
2018-09-05T05:17:52.288Z,1292
2018-09-05T05:18:54.685Z,1544
2018-09-05T05:19:56.794Z,1508
2018-09-05T05:20:59.477Z,1728
2018-09-05T05:22:01.593Z,1584
2018-09-05T05:23:03.694Z,1588
2018-09-05T05:24:05.788Z,1748
2018-09-05T05:25:08.196Z,1596
2018-09-05T05:26:10.296Z,1832
2018-09-05T05:27:12.418Z,2036
2018-09-05T05:28:15.551Z,1904
2018-09-05T05:29:18.616Z,1892
2018-09-05T05:30:20.725Z,1936
2018-09-05T05:31:22.831Z,1912
2018-09-05T05:32:24.978Z,1956
2018-09-05T05:33:27.927Z,1636
2018-09-05T05:34:30.329Z,1548
2018-09-05T05:35:32.435Z,1956
2018-09-05T05:36:34.528Z,1816
2018-09-05T05:37:37.031Z,1852
2018-09-05T05:38:39.124Z,2080
2018-09-05T05:39:41.230Z,1908
2018-09-05T05:40:43.329Z,2020
2018-09-05T05:41:45.730Z,2052
2018-09-05T05:42:48.129Z,1836
2018-09-05T05:43:50.238Z,1848
2018-09-05T05:44:52.348Z,1964
2018-09-05T05:45:54.438Z,2040
2018-09-05T05:46:56.555Z,2340
2018-09-05T05:47:58.970Z,2200
2018-09-05T05:49:01.367Z,1864
2018-09-05T05:50:03.473Z,2024
2018-09-05T05:51:05.585Z,2420
2018-09-05T05:52:07.683Z,2180
2018-09-05T05:53:09.788Z,2144
2018-09-05T05:54:11.893Z,2616
2018-09-05T05:55:14.062Z,2684
2018-09-05T05:56:16.515Z,2692
2018-09-05T05:57:18.631Z,2968
2018-09-05T05:58:20.725Z,3044
2018-09-05T05:59:22.837Z,3020
2018-09-05T06:00:25.252Z,3456
2018-09-05T06:01:27.642Z,3732
2018-09-05T06:02:29.758Z,3452
2018-09-05T06:03:31.859Z,3596
2018-09-05T06:04:33.961Z,3800
2018-09-05T06:05:36.253Z,2656
2018-09-05T06:06:38.369Z,2472
2018-09-05T06:07:40.477Z,2452
2018-09-05T06:08:42.574Z,2716
2018-09-05T06:09:44.687Z,2476
2018-09-05T06:10:47.065Z,2632
2018-09-05T06:11:49.182Z,2648
2018-09-05T06:12:51.287Z,2708
2018-09-05T06:13:53.395Z,2936
2018-09-05T06:14:55.785Z,3616
2018-09-05T06:15:58.291Z,3472
2018-09-05T06:17:00.701Z,3464
2018-09-05T06:18:02.887Z,3520
2018-09-05T06:19:05.253Z,3888
2018-09-05T06:20:07.370Z,3548
2018-09-05T06:21:09.551Z,4052
2018-09-05T06:22:12.555Z,4456
2018-09-05T06:23:14.660Z,3988
2018-09-05T06:24:16.774Z,4156
2018-09-05T06:25:18.875Z,3952
2018-09-05T06:26:21.770Z,3792
2018-09-05T06:27:23.876Z,3784
2018-09-05T06:28:25.980Z,4912
2018-09-05T06:29:28.084Z,5240
2018-09-05T06:30:30.325Z,5660
2018-09-05T06:31:32.282Z,5580
2018-09-05T06:32:34.392Z,5920
2018-09-05T06:33:36.788Z,5740
2018-09-05T06:34:38.881Z,5808
2018-09-05T06:35:41.005Z,5644
2018-09-05T06:36:43.093Z,6352
2018-09-05T06:37:45.195Z,5844
2018-09-05T06:38:47.291Z,5844
2018-09-05T06:39:49.804Z,6192
2018-09-05T06:40:51.901Z,6564
2018-09-05T06:41:54.010Z,7300
2018-09-05T06:42:56.127Z,6564
2018-09-05T06:43:58.216Z,5680
2018-09-05T06:45:00.377Z,5876
2018-09-05T06:46:02.436Z,6360
2018-09-05T06:47:04.556Z,6796
2018-09-05T06:48:07.340Z,6516
2018-09-05T06:49:09.459Z,5588
2018-09-05T06:50:11.847Z,7160
2018-09-05T06:51:13.980Z,11380
2018-09-05T06:52:16.075Z,12280
2018-09-05T06:53:18.195Z,11252
2018-09-05T06:54:20.313Z,10376
2018-09-05T06:55:22.434Z,10500
2018-09-05T06:56:24.539Z,10200
2018-09-05T06:57:26.634Z,8328
2018-09-05T06:58:28.748Z,8492
2018-09-05T06:59:30.842Z,8560
2018-09-05T07:00:33.246Z,9104
2018-09-05T07:01:35.362Z,8668
2018-09-05T07:02:37.473Z,8496
2018-09-05T07:03:39.699Z,7684
2018-09-05T07:04:42.312Z,7204
2018-09-05T07:05:44.711Z,5612
2018-09-05T07:06:47.551Z,5816
2018-09-05T07:07:49.616Z,5880
2018-09-05T07:08:51.707Z,7308
2018-09-05T07:09:53.853Z,6808
2018-09-05T07:10:56.689Z,6880
2018-09-05T07:11:58.801Z,7420
2018-09-05T07:13:00.896Z,7584
2018-09-05T07:14:03.071Z,7384
2018-09-05T07:15:05.426Z,6856
2018-09-05T07:16:07.518Z,6916
2018-09-05T07:17:09.640Z,7020
2018-09-05T07:18:12.025Z,6904
2018-09-05T07:19:14.136Z,7828
2018-09-05T07:20:16.549Z,7724
2018-09-05T07:21:19.073Z,7616
2018-09-05T07:22:21.083Z,7084
2018-09-05T07:23:23.194Z,7612
2018-09-05T07:24:25.592Z,8384
2018-09-05T07:25:27.996Z,9164
2018-09-05T07:26:30.408Z,8828
2018-09-05T07:27:32.511Z,9220
2018-09-05T07:28:35.054Z,9196
2018-09-05T07:29:37.158Z,8596
2018-09-05T07:30:39.443Z,9028
2018-09-05T07:31:41.383Z,9556
2018-09-05T07:32:43.486Z,10028
2018-09-05T07:33:45.590Z,10828
2018-09-05T07:34:47.710Z,10660
2018-09-05T07:35:49.815Z,10032
2018-09-05T07:36:51.911Z,9732
2018-09-05T07:37:54.030Z,9520
2018-09-05T07:38:56.136Z,9504
2018-09-05T07:39:58.528Z,8744
2018-09-05T07:41:00.939Z,8404
2018-09-05T07:42:03.031Z,8072
2018-09-05T07:43:05.143Z,8052
2018-09-05T07:44:07.250Z,8720
2018-09-05T07:45:09.368Z,9128
2018-09-05T07:46:11.462Z,8544
2018-09-05T07:47:13.876Z,7472
2018-09-05T07:48:15.980Z,7008
2018-09-05T07:49:18.358Z,7684
2018-09-05T07:50:20.475Z,7196
2018-09-05T07:51:22.568Z,8400
2018-09-05T07:52:24.677Z,11128
2018-09-05T07:53:27.151Z,11904
2018-09-05T07:54:29.507Z,13700
2018-09-05T07:55:31.606Z,12520
2018-09-05T07:56:33.715Z,13492
2018-09-05T07:57:36.225Z,12740
2018-09-05T07:58:38.318Z,12304
2018-09-05T07:59:40.432Z,10364
2018-09-05T08:00:42.927Z,9744
2018-09-05T08:01:45.025Z,11520
2018-09-05T08:02:47.134Z,13656
2018-09-05T08:03:49.917Z,12664
2018-09-05T08:04:52.019Z,14708
2018-09-05T08:05:54.129Z,17896
2018-09-05T08:06:56.626Z,19360
2018-09-05T08:07:59.119Z,16596
2018-09-05T08:09:01.510Z,15504
2018-09-05T08:10:03.627Z,16000
2018-09-05T08:11:05.716Z,13836
2018-09-05T08:12:07.832Z,13224
2018-09-05T08:13:10.241Z,13628
2018-09-05T08:14:12.622Z,10884
2018-09-05T08:15:14.742Z,10280
2018-09-05T08:16:17.129Z,10732
2018-09-05T08:17:19.271Z,11092
2018-09-05T08:18:21.336Z,11304
2018-09-05T08:19:23.458Z,12724
2018-09-05T08:20:25.945Z,13304
2018-09-05T08:21:28.349Z,14308
2018-09-05T08:22:30.468Z,14068
2018-09-05T08:23:32.553Z,15608
2018-09-05T08:24:34.725Z,16636
2018-09-05T08:25:36.773Z,17248
2018-09-05T08:26:38.884Z,17156
2018-09-05T08:27:40.979Z,16348
2018-09-05T08:28:43.129Z,14456
2018-09-05T08:29:45.200Z,13028
2018-09-05T08:30:47.304Z,15744
2018-09-05T08:31:49.421Z,17164
2018-09-05T08:32:51.915Z,16440
2018-09-05T08:33:54.420Z,14492
2018-09-05T08:34:56.685Z,15152
2018-09-05T08:35:59.113Z,15876
2018-09-05T08:37:01.110Z,15988
2018-09-05T08:38:02.961Z,18624
2018-09-05T08:39:05.046Z,21824
2018-09-05T08:40:07.054Z,20192
2018-09-05T08:41:09.214Z,19520
2018-09-05T08:42:11.330Z,17856
2018-09-05T08:43:13.681Z,17388
2018-09-05T08:44:15.924Z,22656
2018-09-05T08:45:18.250Z,23616
2018-09-05T08:46:20.872Z,22688
2018-09-05T08:47:23.420Z,23040
2018-09-05T08:48:25.591Z,30752
2018-09-05T08:49:27.621Z,31296
2018-09-05T08:50:30.119Z,29792
2018-09-05T08:51:32.893Z,41728
2018-09-05T08:52:35.428Z,23648
2018-09-05T08:53:37.817Z,22976
2018-09-05T08:54:40.636Z,21280
2018-09-05T08:55:43.050Z,20032
2018-09-05T08:56:45.767Z,18912
2018-09-05T08:57:47.898Z,22368
2018-09-05T08:58:50.352Z,20416
2018-09-05T08:59:52.404Z,18432
2018-09-05T09:00:54.791Z,18272
2018-09-05T09:01:57.196Z,16576
2018-09-05T09:02:59.374Z,16524
2018-09-05T09:04:01.791Z,17292
2018-09-05T09:05:03.946Z,20192
2018-09-05T09:06:06.020Z,26304
2018-09-05T09:07:08.472Z,28448
2018-09-05T09:08:10.589Z,24096
2018-09-05T09:09:12.701Z,22272
2018-09-05T09:10:15.383Z,29088
2018-09-05T09:11:17.491Z,39936
2018-09-05T09:12:19.883Z,31712
2018-09-05T09:13:22.385Z,30112
2018-09-05T09:14:24.497Z,51680
2018-09-05T09:15:26.609Z,31520
2018-09-05T09:16:28.708Z,31488
2018-09-05T09:17:31.118Z,29728
2018-09-05T09:18:33.507Z,27456
2018-09-05T09:19:35.611Z,28352
2018-09-05T09:20:37.733Z,30336
2018-09-05T09:21:39.826Z,31808
2018-09-05T09:22:41.937Z,27968
2018-09-05T09:23:44.052Z,24160
2018-09-05T09:24:46.550Z,27872
2018-09-05T09:25:48.963Z,24128
2018-09-05T09:26:51.362Z,22688
2018-09-05T09:27:53.761Z,31264
2018-09-05T09:28:55.877Z,29856
2018-09-05T09:29:57.970Z,31776
2018-09-05T09:31:00.414Z,41216
2018-09-05T09:32:02.524Z,38240
2018-09-05T09:33:04.638Z,27360
2018-09-05T09:34:07.120Z,27488
2018-09-05T09:35:09.238Z,26080
2018-09-05T09:36:11.341Z,95488
2018-09-05T09:37:13.759Z,90304
2018-09-05T09:38:15.888Z,91936
2018-09-05T09:39:17.983Z,92896
2018-09-05T09:40:20.092Z,100032
2018-09-05T09:41:22.209Z,101696
2018-09-05T09:42:24.322Z,100384
2018-09-05T09:43:26.425Z,66400
2018-09-05T09:44:28.927Z,49856
2018-09-05T09:45:31.327Z,105472
2018-09-05T09:46:33.447Z,83808
2018-09-05T09:47:35.564Z,109536
2018-09-05T09:48:37.674Z,28512
2018-09-05T09:49:39.778Z,50112
2018-09-05T09:50:41.901Z,71872
2018-09-05T09:51:44.020Z,80992
2018-09-05T09:52:46.426Z,26720
2018-09-05T09:53:48.549Z,25856
2018-09-05T09:54:50.646Z,28928
2018-09-05T09:55:53.051Z,59136
2018-09-05T09:56:55.167Z,23936
2018-09-05T09:57:57.284Z,19040
2018-09-05T09:58:59.383Z,17640
2018-09-05T10:00:01.504Z,17064
2018-09-05T10:01:04.299Z,16020
2018-09-05T10:02:06.410Z,19520
2018-09-05T10:03:08.537Z,23296
2018-09-05T10:04:11.480Z,42784
2018-09-05T10:05:13.553Z,92832
2018-09-05T10:06:15.678Z,104960
2018-09-05T10:07:17.805Z,90624
2018-09-05T10:08:20.300Z,99328
2018-09-05T10:09:22.408Z,26048
2018-09-05T10:10:24.552Z,67584
2018-09-05T10:11:27.083Z,94240
2018-09-05T10:12:29.188Z,91232
2018-09-05T10:13:31.311Z,92384
2018-09-05T10:14:33.450Z,94624
2018-09-05T10:15:35.569Z,99008
2018-09-05T10:16:37.675Z,49856
2018-09-05T10:17:39.794Z,101248
2018-09-05T10:18:42.222Z,98272
2018-09-05T10:19:44.333Z,33376
2018-09-05T10:20:46.462Z,23104
2018-09-05T10:21:49.369Z,30176
2018-09-05T10:22:51.476Z,95552
2018-09-05T10:23:53.604Z,95392
2018-09-05T10:24:55.713Z,96864
2018-09-05T10:25:57.830Z,81792
2018-09-05T10:26:59.958Z,32672
2018-09-05T10:28:02.057Z,38784
2018-09-05T10:29:04.177Z,27488
2018-09-05T10:30:06.299Z,21632
2018-09-05T10:31:08.425Z,105888
2018-09-05T10:32:10.527Z,35904
2018-09-05T10:33:12.653Z,24064
2018-09-05T10:34:15.062Z,112576
2018-09-05T10:35:17.175Z,112416
2018-09-05T10:36:19.624Z,34848
2018-09-05T10:37:21.732Z,114528
2018-09-05T10:38:23.856Z,25952
2018-09-05T10:39:25.966Z,21088
2018-09-05T10:40:28.391Z,20832
2018-09-05T10:41:30.892Z,21536
2018-09-05T10:42:33.011Z,22176
2018-09-05T10:43:35.136Z,24512
2018-09-05T10:44:37.917Z,102176
2018-09-05T10:45:40.045Z,97824
2018-09-05T10:46:42.163Z,95360
2018-09-05T10:47:44.577Z,94880
2018-09-05T10:48:46.700Z,24352
2018-09-05T10:49:48.827Z,28896
2018-09-05T10:50:50.940Z,101088
2018-09-05T10:51:53.209Z,101280
2018-09-05T10:52:55.188Z,102976
2018-09-05T10:53:57.294Z,37536
2018-09-05T10:54:59.420Z,93984
2018-09-05T10:56:01.550Z,58208
2018-09-05T10:57:04.232Z,89472
2018-09-05T10:58:06.698Z,92736
2018-09-05T10:59:09.191Z,94272
2018-09-05T11:00:11.309Z,98432
2018-09-05T11:01:13.439Z,97376
2018-09-05T11:02:15.550Z,92384
2018-09-05T11:03:17.670Z,96288
2018-09-05T11:04:19.855Z,92320
2018-09-05T11:05:22.292Z,89088
2018-09-05T11:06:24.401Z,69408
2018-09-05T11:07:26.820Z,95808
2018-09-05T11:08:28.946Z,99968
2018-09-05T11:09:31.060Z,97024
2018-09-05T11:10:33.323Z,96032
2018-09-05T11:11:35.306Z,99808
2018-09-05T11:12:37.432Z,100096
2018-09-05T11:13:39.539Z,95200
2018-09-05T11:14:41.668Z,96448
2018-09-05T11:15:43.792Z,100096
2018-09-05T11:16:45.906Z,21376
2018-09-05T11:17:48.047Z,105792
2018-09-05T11:18:50.449Z,103136
2018-09-05T11:19:52.575Z,19844
2018-09-05T11:20:54.688Z,103936
2018-09-05T11:21:57.098Z,106688
2018-09-05T11:22:59.233Z,108000
2018-09-05T11:24:01.346Z,110560
2018-09-05T11:25:03.481Z,112672
2018-09-05T11:26:05.602Z,108320
2018-09-05T11:27:07.717Z,107904
2018-09-05T11:28:09.843Z,108736
2018-09-05T11:29:12.268Z,107072
2018-09-05T11:30:14.396Z,103712
2018-09-05T11:31:16.812Z,68256
2018-09-05T11:32:19.225Z,19708
2018-09-05T11:33:21.341Z,111936
2018-09-05T11:34:23.474Z,111936
2018-09-05T11:35:25.591Z,116992
2018-09-05T11:36:27.715Z,114784
2018-09-05T11:37:29.823Z,83328
2018-09-05T11:38:31.964Z,26208
2018-09-05T11:39:34.080Z,115808
2018-09-05T11:40:36.499Z,38336
2018-09-05T11:41:38.639Z,26272
2018-09-05T11:42:40.751Z,24704
2018-09-05T11:43:42.878Z,87520
2018-09-05T11:44:45.007Z,54048
2018-09-05T11:45:47.432Z,49312
2018-09-05T11:46:49.546Z,62560
2018-09-05T11:47:52.252Z,26944
2018-09-05T11:48:54.369Z,56096
2018-09-05T11:49:56.486Z,32832
2018-09-05T11:50:58.619Z,80352
2018-09-05T11:52:01.124Z,32704
2018-09-05T11:53:03.250Z,106112
2018-09-05T11:54:05.386Z,47520
2018-09-05T11:55:07.796Z,16072
2018-09-05T11:56:10.202Z,14596
2018-09-05T11:57:12.397Z,14648
2018-09-05T11:58:14.477Z,16152
2018-09-05T11:59:16.598Z,19776
2018-09-05T12:00:19.100Z,22912
2018-09-05T12:01:21.221Z,19456
2018-09-05T12:02:23.431Z,18852
2018-09-05T12:03:25.851Z,104192
2018-09-05T12:04:27.978Z,22720
2018-09-05T12:05:30.102Z,33600
2018-09-05T12:06:32.213Z,16876
2018-09-05T12:07:34.349Z,18420
2018-09-05T12:08:36.759Z,23456
2018-09-05T12:09:38.874Z,85888
2018-09-05T12:10:40.988Z,21600
2018-09-05T12:11:43.171Z,17992
2018-09-05T12:12:45.241Z,17864
2018-09-05T12:13:47.368Z,17388
2018-09-05T12:14:49.500Z,17532
2018-09-05T12:15:52.001Z,18048
2018-09-05T12:16:54.130Z,21824
2018-09-05T12:17:56.249Z,107104
2018-09-05T12:18:58.381Z,112544
2018-09-05T12:20:00.485Z,103552
2018-09-05T12:21:02.613Z,72384
2018-09-05T12:22:05.020Z,107936
2018-09-05T12:23:07.427Z,109952
2018-09-05T12:24:09.563Z,103840
2018-09-05T12:25:11.675Z,98624
2018-09-05T12:26:13.797Z,97152
2018-09-05T12:27:15.928Z,103584
2018-09-05T12:28:18.052Z,105856
2018-09-05T12:29:20.166Z,26976
2018-09-05T12:30:22.290Z,65888
2018-09-05T12:31:24.405Z,42176
2018-09-05T12:32:26.523Z,33760
2018-09-05T12:33:28.657Z,26336
2018-09-05T12:34:30.772Z,105568
2018-09-05T12:35:32.901Z,25472
2018-09-05T12:36:35.005Z,24224
2018-09-05T12:37:37.579Z,79360
2018-09-05T12:38:39.702Z,59776
2018-09-05T12:39:41.813Z,81344
2018-09-05T12:40:43.950Z,99552
2018-09-05T12:41:46.376Z,104224
2018-09-05T12:42:48.804Z,105024
2018-09-05T12:43:51.215Z,101120
2018-09-05T12:44:53.359Z,96544
2018-09-05T12:45:55.906Z,101344
2018-09-05T12:46:58.045Z,95968
2018-09-05T12:48:00.259Z,93696
2018-09-05T12:49:02.423Z,97120
2018-09-05T12:50:04.611Z,44000
2018-09-05T12:51:06.789Z,100416
2018-09-05T12:52:09.384Z,99360
2018-09-05T12:53:11.570Z,98880
2018-09-05T12:54:13.712Z,104384
2018-09-05T12:55:15.890Z,98528
2018-09-05T12:56:18.019Z,96128
2018-09-05T12:57:20.162Z,95296
2018-09-05T12:58:22.407Z,91968
2018-09-05T12:59:25.511Z,96352
2018-09-05T13:00:28.331Z,99552
2018-09-05T13:01:32.867Z,98016
2018-09-05T13:02:34.982Z,16244
2018-09-05T13:03:37.106Z,12924
2018-09-05T13:04:39.309Z,13356
2018-09-05T13:05:41.442Z,15136
2018-09-05T13:06:44.551Z,24352
2018-09-05T13:07:46.730Z,13612
2018-09-05T13:08:49.643Z,13652
2018-09-05T13:09:52.414Z,13620
2018-09-05T13:10:55.324Z,78688
2018-09-05T13:11:57.507Z,76192
2018-09-05T13:13:00.447Z,71456
2018-09-05T13:14:02.597Z,62176
2018-09-05T13:15:04.735Z,62720
2018-09-05T13:16:06.874Z,78944
2018-09-05T13:17:09.037Z,91264
2018-09-05T13:18:11.138Z,59872
2018-09-05T13:19:13.869Z,75264
2018-09-05T13:20:21.250Z,31264
2018-09-05T13:21:25.691Z,28864
2018-09-05T13:22:30.873Z,28096
2018-09-05T13:23:32.992Z,25600
2018-09-05T13:24:35.117Z,21024
2018-09-05T13:25:37.620Z,57088
2018-09-05T13:26:39.811Z,71648
2018-09-05T13:27:41.880Z,34880
2018-09-05T13:28:44.014Z,50208
2018-09-05T13:29:46.528Z,37824
2018-09-05T13:30:48.637Z,37216
2018-09-05T13:31:50.783Z,56256
2018-09-05T13:32:52.908Z,20256
2018-09-05T13:33:55.025Z,42560
2018-09-05T13:34:57.150Z,21408
2018-09-05T13:35:59.283Z,26784
2018-09-05T13:37:01.698Z,28192
2018-09-05T13:38:03.985Z,22080
2018-09-05T13:39:06.121Z,20800
2018-09-05T13:40:08.249Z,20992
2018-09-05T13:41:10.379Z,21792
2018-09-05T13:42:12.524Z,58976
2018-09-05T13:43:14.631Z,21728
2018-09-05T13:44:16.769Z,27872
2018-09-05T13:45:18.897Z,24928
2018-09-05T13:46:21.348Z,21824
2018-09-05T13:47:24.192Z,33728
2018-09-05T13:48:26.361Z,30912
2018-09-05T13:49:28.482Z,27456
2018-09-05T13:50:30.625Z,39296
2018-09-05T13:51:32.753Z,23072
2018-09-05T13:52:34.893Z,36896
2018-09-05T13:53:37.045Z,44960
2018-09-05T13:54:39.482Z,13640
2018-09-05T13:55:41.743Z,13208
2018-09-05T13:56:43.864Z,12900
2018-09-05T13:57:45.989Z,12652
2018-09-05T13:58:48.120Z,12528
2018-09-05T13:59:50.934Z,12328
2018-09-05T14:00:53.359Z,12244